sensor_id;sensor_type;location;lat;lon;timestamp;pressure;altitude;pressure_sealevel;temperature;humidity
33422;BME280;19763;55.798;37.782;2023-01-27T00:02:20;147145.41;;;-0.74;80.63
33422;BME280;19763;55.798;37.782;2023-01-27T00:04:45;147142.91;;;-0.75;80.24
33422;BME280;19763;55.798;37.782;2023-01-27T00:07:11;147117.50;;;-0.85;80.75
33422;BME280;19763;55.798;37.782;2023-01-27T00:09:36;147123.81;;;-0.83;79.99
33422;BME280;19763;55.798;37.782;2023-01-27T00:12:02;147135.28;;;-0.78;80.96
33422;BME280;19763;55.798;37.782;2023-01-27T00:14:46;147140.34;;;-0.76;80.77
33422;BME280;19763;55.798;37.782;2023-01-27T00:17:12;147087.00;;;-0.98;80.82
33422;BME280;19763;55.798;37.782;2023-01-27T00:19:37;147069.22;;;-1.05;81.21
33422;BME280;19763;55.798;37.782;2023-01-27T00:22:03;147066.66;;;-1.06;80.61
33422;BME280;19763;55.798;37.782;2023-01-27T00:24:47;147089.53;;;-0.97;80.74
33422;BME280;19763;55.798;37.782;2023-01-27T00:27:13;147100.97;;;-0.92;81.24
33422;BME280;19763;55.798;37.782;2023-01-27T00:29:39;147131.44;;;-0.80;80.51
33422;BME280;19763;55.798;37.782;2023-01-27T00:32:05;147149.25;;;-0.73;80.63
33422;BME280;19763;55.798;37.782;2023-01-27T00:34:49;147109.84;;;-0.89;80.07
33422;BME280;19763;55.798;37.782;2023-01-27T00:37:15;147003.16;;;-1.32;80.57
33422;BME280;19763;55.798;37.782;2023-01-27T00:39:40;147041.28;;;-1.16;81.10
33422;BME280;19763;55.798;37.782;2023-01-27T00:42:06;147042.50;;;-1.16;81.68
33422;BME280;19763;55.798;37.782;2023-01-27T00:44:32;147076.81;;;-1.02;81.92
33422;BME280;19763;55.798;37.782;2023-01-27T00:46:57;147037.47;;;-1.18;82.05
33422;BME280;19763;55.798;37.782;2023-01-27T00:49:23;147029.84;;;-1.21;81.05
33422;BME280;19763;55.798;37.782;2023-01-27T00:51:49;147069.22;;;-1.05;81.03
33422;BME280;19763;55.798;37.782;2023-01-27T00:54:15;147053.94;;;-1.11;81.50
33422;BME280;19763;55.798;37.782;2023-01-27T00:56:41;147076.81;;;-1.02;81.38
33422;BME280;19763;55.798;37.782;2023-01-27T00:59:06;147097.16;;;-0.94;81.50
33422;BME280;19763;55.798;37.782;2023-01-27T01:01:32;147108.56;;;-0.89;81.58
33422;BME280;19763;55.798;37.782;2023-01-27T01:03:59;147079.38;;;-1.01;81.89
33422;BME280;19763;55.798;37.782;2023-01-27T01:06:25;147066.66;;;-1.06;82.35
33422;BME280;19763;55.798;37.782;2023-01-27T01:08:51;147080.63;;;-1.00;81.89
33422;BME280;19763;55.798;37.782;2023-01-27T01:11:19;147108.56;;;-0.89;81.61
33422;BME280;19763;55.798;37.782;2023-01-27T01:13:45;147071.75;;;-1.04;81.92
33422;BME280;19763;55.798;37.782;2023-01-27T01:16:14;147042.50;;;-1.16;82.33
33422;BME280;19763;55.798;37.782;2023-01-27T01:18:41;147084.44;;;-0.99;81.51
33422;BME280;19763;55.798;37.782;2023-01-27T01:21:08;147066.66;;;-1.06;82.55
33422;BME280;19763;55.798;37.782;2023-01-27T01:23:37;147053.94;;;-1.11;82.07
33422;BME280;19763;55.798;37.782;2023-01-27T01:26:04;147046.31;;;-1.14;82.19
33422;BME280;19763;55.798;37.782;2023-01-27T01:28:29;147053.94;;;-1.11;82.35
33422;BME280;19763;55.798;37.782;2023-01-27T01:30:55;147076.81;;;-1.02;82.84
33422;BME280;19763;55.798;37.782;2023-01-27T01:33:20;147023.50;;;-1.24;82.61
33422;BME280;19763;55.798;37.782;2023-01-27T01:35:46;146995.53;;;-1.35;82.77
33422;BME280;19763;55.798;37.782;2023-01-27T01:38:13;147012.06;;;-1.28;81.93
33422;BME280;19763;55.798;37.782;2023-01-27T01:40:43;147004.41;;;-1.31;82.39
33422;BME280;19763;55.798;37.782;2023-01-27T01:43:15;147019.69;;;-1.25;83.35
33422;BME280;19763;55.798;37.782;2023-01-27T01:45:47;146979.03;;;-1.42;83.08
33422;BME280;19763;55.798;37.782;2023-01-27T01:48:21;146975.22;;;-1.43;82.99
33422;BME280;19763;55.798;37.782;2023-01-27T01:53:19;147027.28;;;-1.22;83.24
33422;BME280;19763;55.798;37.782;2023-01-27T01:55:47;147004.41;;;-1.31;83.10
33422;BME280;19763;55.798;37.782;2023-01-27T01:58:13;147017.13;;;-1.26;83.61
33422;BME280;19763;55.798;37.782;2023-01-27T02:00:40;146962.50;;;-1.48;83.20
33422;BME280;19763;55.798;37.782;2023-01-27T02:03:05;146965.06;;;-1.47;83.19
33422;BME280;19763;55.798;37.782;2023-01-27T02:05:33;146942.22;;;-1.57;83.50
33422;BME280;19763;55.798;37.782;2023-01-27T02:08:06;147008.22;;;-1.30;83.65
33422;BME280;19763;55.798;37.782;2023-01-27T02:10:34;146990.44;;;-1.37;82.52
33422;BME280;19763;55.798;37.782;2023-01-27T02:13:00;147022.19;;;-1.24;82.14
33422;BME280;19763;55.798;37.782;2023-01-27T02:15:25;146996.81;;;-1.34;81.85
33422;BME280;19763;55.798;37.782;2023-01-27T02:17:52;146953.63;;;-1.52;82.07
33422;BME280;19763;55.798;37.782;2023-01-27T02:20:51;146962.50;;;-1.48;80.91
33422;BME280;19763;55.798;37.782;2023-01-27T02:28:31;146967.59;;;-1.46;80.28
33422;BME280;19763;55.798;37.782;2023-01-27T02:30:57;146937.13;;;-1.59;81.27
33422;BME280;19763;55.798;37.782;2023-01-27T02:33:23;146940.94;;;-1.57;81.49
33422;BME280;19763;55.798;37.782;2023-01-27T02:38:25;146975.22;;;-1.43;81.91
33422;BME280;19763;55.798;37.782;2023-01-27T02:40:54;146949.84;;;-1.53;80.83
33422;BME280;19763;55.798;37.782;2023-01-27T02:43:22;146967.59;;;-1.46;80.81
33422;BME280;19763;55.798;37.782;2023-01-27T02:45:47;146960.00;;;-1.49;81.46
33422;BME280;19763;55.798;37.782;2023-01-27T02:48:13;146949.84;;;-1.53;81.44
33422;BME280;19763;55.798;37.782;2023-01-27T02:50:39;146981.56;;;-1.41;81.26
33422;BME280;19763;55.798;37.782;2023-01-27T02:53:05;146947.28;;;-1.54;80.41
33422;BME280;19763;55.798;37.782;2023-01-27T02:55:31;146947.28;;;-1.54;80.70
33422;BME280;19763;55.798;37.782;2023-01-27T02:57:57;146991.75;;;-1.36;81.54
33422;BME280;19763;55.798;37.782;2023-01-27T03:00:23;146925.72;;;-1.63;80.62
33422;BME280;19763;55.798;37.782;2023-01-27T03:02:48;146897.78;;;-1.75;80.76
33422;BME280;19763;55.798;37.782;2023-01-27T03:05:14;146918.09;;;-1.66;81.00
33422;BME280;19763;55.798;37.782;2023-01-27T03:07:40;146939.66;;;-1.58;80.59
33422;BME280;19763;55.798;37.782;2023-01-27T03:10:06;146970.16;;;-1.45;80.98
33422;BME280;19763;55.798;37.782;2023-01-27T03:12:32;146993.00;;;-1.36;80.86
33422;BME280;19763;55.798;37.782;2023-01-27T03:14:58;146967.59;;;-1.46;79.67
33422;BME280;19763;55.798;37.782;2023-01-27T03:17:42;146977.78;;;-1.42;79.51
33422;BME280;19763;55.798;37.782;2023-01-27T03:20:26;146979.03;;;-1.42;80.63
33422;BME280;19763;55.798;37.782;2023-01-27T03:22:52;146967.59;;;-1.46;79.91
33422;BME280;19763;55.798;37.782;2023-01-27T03:25:17;146951.09;;;-1.53;79.79
33422;BME280;19763;55.798;37.782;2023-01-27T03:27:43;146954.91;;;-1.51;79.95
33422;BME280;19763;55.798;37.782;2023-01-27T03:30:09;146944.72;;;-1.56;80.15
33422;BME280;19763;55.798;37.782;2023-01-27T03:32:35;146968.88;;;-1.46;79.86
33422;BME280;19763;55.798;37.782;2023-01-27T03:35:01;146967.59;;;-1.46;80.25
33422;BME280;19763;55.798;37.782;2023-01-27T03:37:29;146985.38;;;-1.39;80.99
33422;BME280;19763;55.798;37.782;2023-01-27T03:40:15;146998.09;;;-1.34;80.37
33422;BME280;19763;55.798;37.782;2023-01-27T03:43:00;147019.69;;;-1.25;79.38
33422;BME280;19763;55.798;37.782;2023-01-27T03:45:49;146989.19;;;-1.37;80.02
33422;BME280;19763;55.798;37.782;2023-01-27T03:48:33;146993.00;;;-1.36;79.53
33422;BME280;19763;55.798;37.782;2023-01-27T03:51:00;146991.75;;;-1.36;79.57
33422;BME280;19763;55.798;37.782;2023-01-27T03:53:27;146972.66;;;-1.44;80.26
33422;BME280;19763;55.798;37.782;2023-01-27T03:55:52;146980.28;;;-1.41;80.62
33422;BME280;19763;55.798;37.782;2023-01-27T03:58:22;147004.41;;;-1.31;79.76
33422;BME280;19763;55.798;37.782;2023-01-27T04:03:16;147033.66;;;-1.19;79.50
33422;BME280;19763;55.798;37.782;2023-01-27T04:06:05;146971.41;;;-1.45;81.24
33422;BME280;19763;55.798;37.782;2023-01-27T04:08:49;146949.84;;;-1.53;81.36
33422;BME280;19763;55.798;37.782;2023-01-27T04:11:15;146965.06;;;-1.47;80.85
33422;BME280;19763;55.798;37.782;2023-01-27T04:14:00;147005.72;;;-1.31;81.27
33422;BME280;19763;55.798;37.782;2023-01-27T04:16:26;147008.22;;;-1.30;81.46
33422;BME280;19763;55.798;37.782;2023-01-27T04:18:53;146975.22;;;-1.43;80.07
33422;BME280;19763;55.798;37.782;2023-01-27T04:21:19;146963.81;;;-1.48;81.12
33422;BME280;19763;55.798;37.782;2023-01-27T04:23:45;147001.91;;;-1.32;81.46
33422;BME280;19763;55.798;37.782;2023-01-27T04:26:10;147014.56;;;-1.27;80.72
33422;BME280;19763;55.798;37.782;2023-01-27T04:28:36;146984.13;;;-1.40;80.51
33422;BME280;19763;55.798;37.782;2023-01-27T04:31:01;147018.38;;;-1.26;80.91
33422;BME280;19763;55.798;37.782;2023-01-27T04:33:27;147029.84;;;-1.21;80.45
33422;BME280;19763;55.798;37.782;2023-01-27T04:35:54;147019.69;;;-1.25;80.68
33422;BME280;19763;55.798;37.782;2023-01-27T04:38:20;147027.28;;;-1.22;80.33
33422;BME280;19763;55.798;37.782;2023-01-27T04:40:46;147028.56;;;-1.22;79.08
33422;BME280;19763;55.798;37.782;2023-01-27T04:43:12;147020.94;;;-1.25;79.89
33422;BME280;19763;55.798;37.782;2023-01-27T04:45:38;147032.34;;;-1.20;79.77
33422;BME280;19763;55.798;37.782;2023-01-27T04:48:04;147042.50;;;-1.16;79.19
33422;BME280;19763;55.798;37.782;2023-01-27T04:50:31;147039.97;;;-1.17;79.12
33422;BME280;19763;55.798;37.782;2023-01-27T04:52:57;147010.78;;;-1.29;78.85
33422;BME280;19763;55.798;37.782;2023-01-27T04:55:22;146924.47;;;-1.64;79.92
33422;BME280;19763;55.798;37.782;2023-01-27T04:57:48;146996.81;;;-1.34;79.76
33422;BME280;19763;55.798;37.782;2023-01-27T05:00:14;146990.44;;;-1.37;80.27
33422;BME280;19763;55.798;37.782;2023-01-27T05:02:40;146977.78;;;-1.42;80.14
33422;BME280;19763;55.798;37.782;2023-01-27T05:05:06;146919.34;;;-1.66;80.13
33422;BME280;19763;55.798;37.782;2023-01-27T05:07:32;146993.00;;;-1.36;80.16
33422;BME280;19763;55.798;37.782;2023-01-27T05:09:58;146975.22;;;-1.43;80.35
33422;BME280;19763;55.798;37.782;2023-01-27T05:12:23;146962.50;;;-1.48;80.18
33422;BME280;19763;55.798;37.782;2023-01-27T05:14:49;146957.44;;;-1.50;79.68
33422;BME280;19763;55.798;37.782;2023-01-27T05:17:15;146961.25;;;-1.49;80.90
33422;BME280;19763;55.798;37.782;2023-01-27T05:19:40;146987.94;;;-1.38;80.83
33422;BME280;19763;55.798;37.782;2023-01-27T05:22:06;147009.53;;;-1.29;80.13
33422;BME280;19763;55.798;37.782;2023-01-27T05:24:33;146998.09;;;-1.34;80.80
33422;BME280;19763;55.798;37.782;2023-01-27T05:26:58;146967.59;;;-1.46;80.21
33422;BME280;19763;55.798;37.782;2023-01-27T05:29:24;146984.13;;;-1.40;80.30
33422;BME280;19763;55.798;37.782;2023-01-27T05:31:49;146994.25;;;-1.35;80.94
33422;BME280;19763;55.798;37.782;2023-01-27T05:34:15;146962.50;;;-1.48;80.82
33422;BME280;19763;55.798;37.782;2023-01-27T05:36:41;146940.94;;;-1.57;81.44
33422;BME280;19763;55.798;37.782;2023-01-27T05:39:09;146893.97;;;-1.76;81.66
33422;BME280;19763;55.798;37.782;2023-01-27T05:41:34;146919.34;;;-1.66;81.73
33422;BME280;19763;55.798;37.782;2023-01-27T05:44:00;146862.25;;;-1.89;81.51
33422;BME280;19763;55.798;37.782;2023-01-27T05:46:28;146918.09;;;-1.66;81.25
33422;BME280;19763;55.798;37.782;2023-01-27T05:48:56;146911.75;;;-1.69;82.23
33422;BME280;19763;55.798;37.782;2023-01-27T05:51:24;146881.25;;;-1.81;81.55
33422;BME280;19763;55.798;37.782;2023-01-27T05:53:50;146835.56;;;-2.00;82.53
33422;BME280;19763;55.798;37.782;2023-01-27T05:56:17;146890.16;;;-1.78;82.41
33422;BME280;19763;55.798;37.782;2023-01-27T05:58:44;146911.75;;;-1.69;81.72
33422;BME280;19763;55.798;37.782;2023-01-27T06:01:15;146886.38;;;-1.79;81.39
33422;BME280;19763;55.798;37.782;2023-01-27T06:03:42;146849.53;;;-1.94;82.11
33422;BME280;19763;55.798;37.782;2023-01-27T06:06:09;146891.41;;;-1.77;80.65
33422;BME280;19763;55.798;37.782;2023-01-27T06:08:36;146914.28;;;-1.68;81.26
33422;BME280;19763;55.798;37.782;2023-01-27T06:11:02;146924.47;;;-1.64;80.89
33422;BME280;19763;55.798;37.782;2023-01-27T06:13:27;146916.81;;;-1.67;81.50
33422;BME280;19763;55.798;37.782;2023-01-27T06:15:53;146899.03;;;-1.74;81.67
33422;BME280;19763;55.798;37.782;2023-01-27T06:18:22;146926.97;;;-1.63;81.79
33422;BME280;19763;55.798;37.782;2023-01-27T06:20:48;146887.63;;;-1.79;81.76
33422;BME280;19763;55.798;37.782;2023-01-27T06:23:15;146907.94;;;-1.70;81.25
33422;BME280;19763;55.798;37.782;2023-01-27T06:25:45;146926.97;;;-1.63;82.72
33422;BME280;19763;55.798;37.782;2023-01-27T06:28:12;146934.56;;;-1.60;81.92
33422;BME280;19763;55.798;37.782;2023-01-27T06:30:38;146835.56;;;-2.00;81.66
33422;BME280;19763;55.798;37.782;2023-01-27T06:33:05;146940.94;;;-1.57;81.62
33422;BME280;19763;55.798;37.782;2023-01-27T06:35:32;146963.81;;;-1.48;81.25
33422;BME280;19763;55.798;37.782;2023-01-27T06:37:58;146977.78;;;-1.42;81.78
33422;BME280;19763;55.798;37.782;2023-01-27T06:40:25;146993.00;;;-1.36;81.33
33422;BME280;19763;55.798;37.782;2023-01-27T06:42:51;147004.41;;;-1.31;80.70
33422;BME280;19763;55.798;37.782;2023-01-27T06:45:16;147018.38;;;-1.26;80.34
33422;BME280;19763;55.798;37.782;2023-01-27T06:47:42;147012.06;;;-1.28;81.09
33422;BME280;19763;55.798;37.782;2023-01-27T06:50:08;146982.84;;;-1.40;80.72
33422;BME280;19763;55.798;37.782;2023-01-27T06:52:34;146989.19;;;-1.37;80.87
33422;BME280;19763;55.798;37.782;2023-01-27T06:55:00;146979.03;;;-1.42;80.36
33422;BME280;19763;55.798;37.782;2023-01-27T06:57:27;146996.81;;;-1.34;80.55
33422;BME280;19763;55.798;37.782;2023-01-27T06:59:52;147010.78;;;-1.29;80.71
33422;BME280;19763;55.798;37.782;2023-01-27T07:02:18;146995.53;;;-1.35;80.49
33422;BME280;19763;55.798;37.782;2023-01-27T07:04:43;147013.31;;;-1.28;79.95
33422;BME280;19763;55.798;37.782;2023-01-27T07:07:09;147012.06;;;-1.28;80.09
33422;BME280;19763;55.798;37.782;2023-01-27T07:09:34;147018.38;;;-1.26;79.91
33422;BME280;19763;55.798;37.782;2023-01-27T07:12:00;147015.88;;;-1.27;80.17
33422;BME280;19763;55.798;37.782;2023-01-27T07:14:25;146953.63;;;-1.52;80.39
33422;BME280;19763;55.798;37.782;2023-01-27T07:16:51;146995.53;;;-1.35;79.57
33422;BME280;19763;55.798;37.782;2023-01-27T07:19:16;146966.34;;;-1.47;79.63
33422;BME280;19763;55.798;37.782;2023-01-27T07:21:43;146944.72;;;-1.56;80.01
33422;BME280;19763;55.798;37.782;2023-01-27T07:24:08;146984.13;;;-1.40;79.66
33422;BME280;19763;55.798;37.782;2023-01-27T07:26:34;146979.03;;;-1.42;80.27
33422;BME280;19763;55.798;37.782;2023-01-27T07:28:59;146982.84;;;-1.40;79.29
33422;BME280;19763;55.798;37.782;2023-01-27T07:31:25;147003.16;;;-1.32;79.12
33422;BME280;19763;55.798;37.782;2023-01-27T07:33:52;146977.78;;;-1.42;79.66
33422;BME280;19763;55.798;37.782;2023-01-27T07:36:18;147010.78;;;-1.29;79.09
33422;BME280;19763;55.798;37.782;2023-01-27T07:38:43;147012.06;;;-1.28;79.80
33422;BME280;19763;55.798;37.782;2023-01-27T07:41:09;147026.03;;;-1.23;79.62
33422;BME280;19763;55.798;37.782;2023-01-27T07:43:35;147052.69;;;-1.12;78.87
33422;BME280;19763;55.798;37.782;2023-01-27T07:46:01;147009.53;;;-1.29;78.05
33422;BME280;19763;55.798;37.782;2023-01-27T07:48:27;147031.09;;;-1.20;78.22
33422;BME280;19763;55.798;37.782;2023-01-27T07:50:52;146998.09;;;-1.34;78.69
33422;BME280;19763;55.798;37.782;2023-01-27T07:53:18;147039.97;;;-1.17;78.20
33422;BME280;19763;55.798;37.782;2023-01-27T07:55:43;147034.91;;;-1.19;77.49
33422;BME280;19763;55.798;37.782;2023-01-27T07:58:09;147041.28;;;-1.16;78.70
33422;BME280;19763;55.798;37.782;2023-01-27T08:00:35;147034.91;;;-1.19;77.48
33422;BME280;19763;55.798;37.782;2023-01-27T08:03:01;147013.31;;;-1.28;78.72
33422;BME280;19763;55.798;37.782;2023-01-27T08:05:30;147041.28;;;-1.16;79.07
33422;BME280;19763;55.798;37.782;2023-01-27T08:07:56;147039.97;;;-1.17;77.66
33422;BME280;19763;55.798;37.782;2023-01-27T08:10:22;146998.09;;;-1.34;78.45
33422;BME280;19763;55.798;37.782;2023-01-27T08:12:48;147050.13;;;-1.13;77.87
33422;BME280;19763;55.798;37.782;2023-01-27T08:15:14;147047.63;;;-1.14;77.69
33422;BME280;19763;55.798;37.782;2023-01-27T08:17:40;147051.44;;;-1.12;77.86
33422;BME280;19763;55.798;37.782;2023-01-27T08:20:07;147087.00;;;-0.98;77.53
33422;BME280;19763;55.798;37.782;2023-01-27T08:22:33;147123.81;;;-0.83;77.95
33422;BME280;19763;55.798;37.782;2023-01-27T08:24:59;147125.09;;;-0.82;77.05
33422;BME280;19763;55.798;37.782;2023-01-27T08:27:24;147114.94;;;-0.87;76.34
33422;BME280;19763;55.798;37.782;2023-01-27T08:29:50;147144.16;;;-0.75;77.39
33422;BME280;19763;55.798;37.782;2023-01-27T08:32:15;147141.59;;;-0.76;75.72
33422;BME280;19763;55.798;37.782;2023-01-27T08:34:41;147178.47;;;-0.61;76.36
33422;BME280;19763;55.798;37.782;2023-01-27T08:37:07;147179.72;;;-0.60;76.38
33422;BME280;19763;55.798;37.782;2023-01-27T08:39:33;147151.75;;;-0.72;76.51
33422;BME280;19763;55.798;37.782;2023-01-27T08:41:59;147164.50;;;-0.66;76.36
33422;BME280;19763;55.798;37.782;2023-01-27T08:44:25;147197.50;;;-0.53;75.70
33422;BME280;19763;55.798;37.782;2023-01-27T08:46:53;147133.97;;;-0.79;75.72
33422;BME280;19763;55.798;37.782;2023-01-27T08:49:19;147150.50;;;-0.72;76.86
33422;BME280;19763;55.798;37.782;2023-01-27T08:51:44;147158.13;;;-0.69;76.02
33422;BME280;19763;55.798;37.782;2023-01-27T08:54:10;147147.97;;;-0.73;76.62
33422;BME280;19763;55.798;37.782;2023-01-27T08:56:36;147145.41;;;-0.74;77.03
33422;BME280;19763;55.798;37.782;2023-01-27T08:59:02;147191.13;;;-0.56;77.01
33422;BME280;19763;55.798;37.782;2023-01-27T09:01:27;147182.28;;;-0.59;76.36
33422;BME280;19763;55.798;37.782;2023-01-27T09:03:53;147173.34;;;-0.63;76.13
33422;BME280;19763;55.798;37.782;2023-01-27T09:06:18;147146.69;;;-0.74;76.74
33422;BME280;19763;55.798;37.782;2023-01-27T09:08:46;147170.84;;;-0.64;77.07
33422;BME280;19763;55.798;37.782;2023-01-27T09:11:32;147155.56;;;-0.70;76.38
33422;BME280;19763;55.798;37.782;2023-01-27T09:13:57;147123.81;;;-0.83;76.30
33422;BME280;19763;55.798;37.782;2023-01-27T09:16:23;147149.25;;;-0.73;76.31
33422;BME280;19763;55.798;37.782;2023-01-27T09:18:48;147151.75;;;-0.72;76.51
33422;BME280;19763;55.798;37.782;2023-01-27T09:21:14;147188.63;;;-0.57;76.79
33422;BME280;19763;55.798;37.782;2023-01-27T09:23:39;147214.03;;;-0.46;76.30
33422;BME280;19763;55.798;37.782;2023-01-27T09:26:05;147214.03;;;-0.46;76.12
33422;BME280;19763;55.798;37.782;2023-01-27T09:28:31;147266.16;;;-0.25;76.72
33422;BME280;19763;55.798;37.782;2023-01-27T09:30:57;147244.56;;;-0.34;75.72
33422;BME280;19763;55.798;37.782;2023-01-27T09:33:23;147242.00;;;-0.35;75.33
33422;BME280;19763;55.798;37.782;2023-01-27T09:36:09;147255.97;;;-0.29;75.37
33422;BME280;19763;55.798;37.782;2023-01-27T09:38:40;147292.81;;;-0.14;75.72
33422;BME280;19763;55.798;37.782;2023-01-27T09:41:25;147280.13;;;-0.20;75.20
33422;BME280;19763;55.798;37.782;2023-01-27T09:47:08;147287.75;;;-0.16;74.82
33422;BME280;19763;55.798;37.782;2023-01-27T09:55:02;147233.09;;;-0.39;75.08
33422;BME280;19763;55.798;37.782;2023-01-27T09:57:50;147249.63;;;-0.32;75.40
33422;BME280;19763;55.798;37.782;2023-01-27T10:13:39;147316.97;;;-0.05;74.54
33422;BME280;19763;55.798;37.782;2023-01-27T10:25:08;147255.97;;;-0.29;75.44
33422;BME280;19763;55.798;37.782;2023-01-27T10:27:48;147264.84;;;-0.26;74.99
33422;BME280;19763;55.798;37.782;2023-01-27T10:30:37;147291.56;;;-0.15;75.13
33422;BME280;19763;55.798;37.782;2023-01-27T10:36:01;147202.63;;;-0.51;76.12
33422;BME280;19763;55.798;37.782;2023-01-27T10:39:10;147244.56;;;-0.34;75.87
33422;BME280;19763;55.798;37.782;2023-01-27T10:44:35;147259.78;;;-0.28;76.34
33422;BME280;19763;55.798;37.782;2023-01-27T10:49:54;147271.22;;;-0.23;75.22
33422;BME280;19763;55.798;37.782;2023-01-27T10:52:25;147267.41;;;-0.25;75.69
33422;BME280;19763;55.798;37.782;2023-01-27T10:55:01;147275.03;;;-0.22;75.23
33422;BME280;19763;55.798;37.782;2023-01-27T10:57:37;147287.75;;;-0.16;75.28
33422;BME280;19763;55.798;37.782;2023-01-27T11:05:51;147330.97;;;0.01;75.07
33422;BME280;19763;55.798;37.782;2023-01-27T11:08:27;147357.69;;;0.12;74.59
33422;BME280;19763;55.798;37.782;2023-01-27T11:10:56;147267.41;;;-0.25;76.03
33422;BME280;19763;55.798;37.782;2023-01-27T11:13:42;147297.94;;;-0.12;75.68
33422;BME280;19763;55.798;37.782;2023-01-27T11:16:14;147290.31;;;-0.15;76.18
33422;BME280;19763;55.798;37.782;2023-01-27T11:18:40;147271.22;;;-0.23;76.11
33422;BME280;19763;55.798;37.782;2023-01-27T11:21:25;147269.97;;;-0.24;76.51
33422;BME280;19763;55.798;37.782;2023-01-27T11:23:54;147264.84;;;-0.26;77.33
33422;BME280;19763;55.798;37.782;2023-01-27T11:26:32;147267.41;;;-0.25;76.71
33422;BME280;19763;55.798;37.782;2023-01-27T11:32:08;147281.41;;;-0.19;76.96
33422;BME280;19763;55.798;37.782;2023-01-27T11:37:43;147273.78;;;-0.22;77.20
33422;BME280;19763;55.798;37.782;2023-01-27T11:42:51;147245.81;;;-0.33;76.91
33422;BME280;19763;55.798;37.782;2023-01-27T11:45:20;147286.50;;;-0.17;77.79
33422;BME280;19763;55.798;37.782;2023-01-27T11:47:58;147263.59;;;-0.26;77.21
33422;BME280;19763;55.798;37.782;2023-01-27T11:50:27;147280.13;;;-0.20;77.02
33422;BME280;19763;55.798;37.782;2023-01-27T11:55:39;147272.53;;;-0.23;77.12
33422;BME280;19763;55.798;37.782;2023-01-27T11:58:21;147259.78;;;-0.28;77.31
33422;BME280;19763;55.798;37.782;2023-01-27T12:06:00;147257.25;;;-0.29;77.77
33422;BME280;19763;55.798;37.782;2023-01-27T12:13:53;147282.66;;;-0.19;77.35
33422;BME280;19763;55.798;37.782;2023-01-27T12:16:21;147314.47;;;-0.06;77.25
33422;BME280;19763;55.798;37.782;2023-01-27T12:18:58;147309.38;;;-0.08;77.19
33422;BME280;19763;55.798;37.782;2023-01-27T12:21:37;147327.16;;;-0.01;77.07
33422;BME280;19763;55.798;37.782;2023-01-27T12:24:04;147296.63;;;-0.13;76.92
33422;BME280;19763;55.798;37.782;2023-01-27T12:26:39;147297.94;;;-0.12;77.63
33422;BME280;19763;55.798;37.782;2023-01-27T12:29:29;147330.97;;;0.01;77.08
33422;BME280;19763;55.798;37.782;2023-01-27T12:31:59;147311.91;;;-0.07;77.35
33422;BME280;19763;55.798;37.782;2023-01-27T12:36:51;147303.00;;;-0.10;77.50
33422;BME280;19763;55.798;37.782;2023-01-27T12:39:35;147334.78;;;0.03;77.19
33422;BME280;19763;55.798;37.782;2023-01-27T12:42:05;147324.59;;;-0.02;77.18
33422;BME280;19763;55.798;37.782;2023-01-27T12:44:41;147283.94;;;-0.18;77.22
33422;BME280;19763;55.798;37.782;2023-01-27T12:47:26;147264.84;;;-0.26;78.44
33422;BME280;19763;55.798;37.782;2023-01-27T12:50:19;147316.97;;;-0.05;77.10
33422;BME280;19763;55.798;37.782;2023-01-27T12:55:36;147258.53;;;-0.28;78.25
33422;BME280;19763;55.798;37.782;2023-01-27T12:58:03;147277.59;;;-0.21;78.10
33422;BME280;19763;55.798;37.782;2023-01-27T13:00:30;147282.66;;;-0.19;78.28
33422;BME280;19763;55.798;37.782;2023-01-27T13:03:05;147305.56;;;-0.09;77.56
33422;BME280;19763;55.798;37.782;2023-01-27T13:05:37;147259.78;;;-0.28;78.00
33422;BME280;19763;55.798;37.782;2023-01-27T13:08:03;147297.94;;;-0.12;77.79
33422;BME280;19763;55.798;37.782;2023-01-27T13:10:29;147276.34;;;-0.21;77.71
33422;BME280;19763;55.798;37.782;2023-01-27T13:12:57;147315.72;;;-0.05;77.58
33422;BME280;19763;55.798;37.782;2023-01-27T13:15:25;147313.16;;;-0.06;77.29
33422;BME280;19763;55.798;37.782;2023-01-27T13:17:54;147318.28;;;-0.04;77.71
33422;BME280;19763;55.798;37.782;2023-01-27T13:20:33;147303.00;;;-0.10;77.57
33422;BME280;19763;55.798;37.782;2023-01-27T13:23:06;147327.16;;;-0.01;77.57
33422;BME280;19763;55.798;37.782;2023-01-27T13:25:38;147320.78;;;-0.03;77.38
33422;BME280;19763;55.798;37.782;2023-01-27T13:28:07;147315.72;;;-0.05;77.43
33422;BME280;19763;55.798;37.782;2023-01-27T13:30:37;147281.41;;;-0.19;77.61
33422;BME280;19763;55.798;37.782;2023-01-27T13:33:26;147259.78;;;-0.28;78.02
33422;BME280;19763;55.798;37.782;2023-01-27T13:36:05;147263.59;;;-0.26;78.13
33422;BME280;19763;55.798;37.782;2023-01-27T13:38:51;147291.56;;;-0.15;77.89
33422;BME280;19763;55.798;37.782;2023-01-27T13:41:27;147285.19;;;-0.18;78.52
33422;BME280;19763;55.798;37.782;2023-01-27T13:44:16;147252.19;;;-0.31;77.69
33422;BME280;19763;55.798;37.782;2023-01-27T13:46:47;147291.56;;;-0.15;77.77
33422;BME280;19763;55.798;37.782;2023-01-27T13:49:28;147322.09;;;-0.03;77.52
33422;BME280;19763;55.798;37.782;2023-01-27T13:51:55;147348.75;;;0.08;77.66
33422;BME280;19763;55.798;37.782;2023-01-27T13:54:21;147341.16;;;0.05;78.02
33422;BME280;19763;55.798;37.782;2023-01-27T13:56:54;147323.34;;;-0.02;78.20
33422;BME280;19763;55.798;37.782;2023-01-27T14:07:57;147236.88;;;-0.37;78.32
33422;BME280;19763;55.798;37.782;2023-01-27T14:16:15;147231.81;;;-0.39;78.52
33422;BME280;19763;55.798;37.782;2023-01-27T14:18:49;147267.41;;;-0.25;78.90
33422;BME280;19763;55.798;37.782;2023-01-27T14:21:36;147303.00;;;-0.10;79.25
33422;BME280;19763;55.798;37.782;2023-01-27T14:27:05;147296.63;;;-0.13;79.12
33422;BME280;19763;55.798;37.782;2023-01-27T14:29:52;147277.59;;;-0.21;78.40
33422;BME280;19763;55.798;37.782;2023-01-27T14:32:33;147252.19;;;-0.31;79.13
33422;BME280;19763;55.798;37.782;2023-01-27T14:49:11;147280.13;;;-0.20;79.35